createdAt,value
2019-02-12T00:00:17.509Z,69.60
2019-02-12T00:00:53.778Z,69.80
2019-02-12T00:01:26.252Z,69.60
2019-02-12T00:01:59.174Z,69.80
2019-02-12T00:02:32.198Z,69.90
2019-02-12T00:03:04.658Z,69.80
2019-02-12T00:03:37.527Z,69.60
2019-02-12T00:04:10.288Z,69.60
2019-02-12T00:04:43.066Z,69.70
2019-02-12T00:05:15.539Z,69.40
2019-02-12T00:05:48.301Z,69.50
2019-02-12T00:06:20.820Z,69.20
2019-02-12T00:06:53.266Z,69.20
2019-02-12T00:07:25.726Z,69.40
2019-02-12T00:07:58.196Z,69.20
2019-02-12T00:08:30.725Z,68.90
2019-02-12T00:09:06.073Z,69.00
2019-02-12T00:09:38.535Z,69.10
2019-02-12T00:10:11.010Z,68.90
2019-02-12T00:10:43.489Z,68.90
2019-02-12T00:11:15.965Z,68.80
2019-02-12T00:11:48.430Z,68.70
2019-02-12T00:12:21.267Z,68.60
2019-02-12T00:12:53.743Z,68.60
2019-02-12T00:13:26.195Z,68.70
2019-02-12T00:13:59.302Z,68.80
2019-02-12T00:14:32.173Z,68.70
2019-02-12T00:15:04.758Z,68.80
2019-02-12T00:15:37.460Z,68.60
2019-02-12T00:16:09.953Z,68.50
2019-02-12T00:16:42.421Z,68.30
2019-02-12T00:17:14.914Z,68.30
2019-02-12T00:17:48.076Z,68.20
2019-02-12T00:18:20.558Z,68.30
2019-02-12T00:18:53.316Z,68.20
2019-02-12T00:19:25.792Z,68.10
2019-02-12T00:19:58.322Z,68.40
2019-02-12T00:20:30.792Z,68.40
2019-02-12T00:21:09.030Z,68.50
2019-02-12T00:21:37.514Z,68.60
2019-02-12T00:22:10.682Z,68.60
2019-02-12T00:22:43.455Z,68.70
2019-02-12T00:23:15.923Z,68.40
2019-02-12T00:23:48.429Z,68.80
2019-02-12T00:24:20.885Z,68.90
2019-02-12T00:24:53.376Z,68.80
2019-02-12T00:25:25.862Z,68.90
2019-02-12T00:25:59.084Z,69.00
2019-02-12T00:26:31.646Z,69.70
2019-02-12T00:27:04.416Z,69.20
2019-02-12T00:27:36.870Z,69.30
2019-02-12T00:28:10.048Z,69.00
2019-02-12T00:28:42.516Z,69.00
2019-02-12T00:29:15.008Z,69.00
2019-02-12T00:29:47.496Z,69.00
2019-02-12T00:30:20.107Z,69.00
2019-02-12T00:30:52.597Z,69.60
2019-02-12T00:31:25.425Z,68.90
2019-02-12T00:31:58.196Z,69.00
2019-02-12T00:32:31.416Z,69.00
2019-02-12T00:33:03.909Z,69.10
2019-02-12T00:33:37.076Z,69.30
2019-02-12T00:34:10.905Z,69.40
2019-02-12T00:34:43.983Z,69.40
2019-02-12T00:35:16.451Z,69.30
2019-02-12T00:35:48.915Z,69.30
2019-02-12T00:36:21.415Z,69.00
2019-02-12T00:36:53.880Z,68.50
2019-02-12T00:37:26.354Z,68.70
2019-02-12T00:37:58.814Z,68.80
2019-02-12T00:38:31.620Z,68.90
2019-02-12T00:39:05.570Z,68.70
2019-02-12T00:39:38.038Z,68.60
2019-02-12T00:40:10.623Z,68.80
2019-02-12T00:40:43.071Z,68.80
2019-02-12T00:41:15.546Z,68.90
2019-02-12T00:41:48.534Z,69.10
2019-02-12T00:42:21.146Z,69.20
2019-02-12T00:42:53.586Z,69.30
2019-02-12T00:43:26.390Z,69.20
2019-02-12T00:43:58.875Z,68.90
2019-02-12T00:44:31.468Z,68.90
2019-02-12T00:45:04.732Z,69.00
2019-02-12T00:45:37.208Z,69.00
2019-02-12T00:46:09.680Z,69.10
2019-02-12T00:46:42.829Z,69.00
2019-02-12T00:47:15.346Z,68.90
2019-02-12T00:47:47.812Z,69.60
2019-02-12T00:48:20.492Z,69.20
2019-02-12T00:48:52.960Z,69.30
2019-02-12T00:49:25.423Z,69.30
2019-02-12T00:49:58.168Z,69.30
2019-02-12T00:50:31.045Z,69.30
2019-02-12T00:51:03.499Z,69.60
2019-02-12T00:51:36.301Z,69.80
2019-02-12T00:52:09.107Z,69.50
2019-02-12T00:52:41.603Z,69.50
2019-02-12T00:53:14.076Z,69.60
2019-02-12T00:53:46.861Z,69.50
2019-02-12T00:54:19.709Z,69.70
2019-02-12T00:54:52.528Z,69.80
2019-02-12T00:55:26.099Z,69.90
2019-02-12T00:55:58.547Z,69.90
2019-02-12T00:56:33.223Z,70.10
2019-02-12T00:57:05.828Z,70.20
2019-02-12T00:57:38.614Z,70.30
2019-02-12T00:58:11.107Z,69.80
2019-02-12T00:58:43.583Z,69.80
2019-02-12T00:59:16.337Z,69.80
2019-02-12T00:59:49.159Z,69.90
2019-02-12T01:00:21.623Z,69.90
2019-02-12T01:00:54.070Z,69.80
2019-02-12T01:01:26.547Z,69.70
2019-02-12T01:01:59.010Z,69.90
2019-02-12T01:02:31.528Z,70.00
2019-02-12T01:03:04.001Z,70.00
2019-02-12T01:03:36.515Z,70.00
2019-02-12T01:04:09.066Z,69.80
2019-02-12T01:04:41.548Z,69.80
2019-02-12T01:05:14.010Z,69.90
2019-02-12T01:05:46.477Z,70.10
2019-02-12T01:06:18.939Z,70.10
2019-02-12T01:06:51.395Z,70.20
2019-02-12T01:07:24.181Z,70.30
2019-02-12T01:07:56.671Z,70.30
2019-02-12T01:08:29.456Z,70.20
2019-02-12T01:09:04.146Z,70.40
2019-02-12T01:09:36.627Z,70.30
2019-02-12T01:10:09.437Z,70.10
2019-02-12T01:10:42.601Z,70.10
2019-02-12T01:11:15.815Z,70.00
2019-02-12T01:11:48.578Z,70.10
2019-02-12T01:12:21.105Z,70.10
2019-02-12T01:12:53.714Z,70.30
2019-02-12T01:13:26.178Z,70.20
2019-02-12T01:13:59.687Z,70.10
2019-02-12T01:14:32.923Z,70.60
2019-02-12T01:15:07.209Z,70.00
2019-02-12T01:15:40.336Z,70.20
2019-02-12T01:16:12.944Z,70.20
2019-02-12T01:16:45.843Z,70.30
2019-02-12T01:17:18.961Z,70.20
2019-02-12T01:17:51.431Z,70.40
2019-02-12T01:18:23.895Z,70.40
2019-02-12T01:18:56.655Z,70.50
2019-02-12T01:19:29.390Z,70.20
2019-02-12T01:20:02.203Z,70.10
2019-02-12T01:20:34.971Z,70.20
2019-02-12T01:21:07.465Z,70.20
2019-02-12T01:21:40.146Z,70.10
2019-02-12T01:22:12.615Z,70.20
2019-02-12T01:22:45.439Z,70.20
2019-02-12T01:23:17.932Z,70.20
2019-02-12T01:23:50.390Z,70.30
2019-02-12T01:24:23.138Z,70.40
2019-02-12T01:24:55.662Z,70.40
2019-02-12T01:25:28.513Z,70.50
2019-02-12T01:26:00.987Z,70.40
2019-02-12T01:26:33.736Z,70.40
2019-02-12T01:27:06.208Z,70.30
2019-02-12T01:27:38.677Z,70.30
2019-02-12T01:28:11.768Z,70.30
2019-02-12T01:28:45.365Z,70.80
2019-02-12T01:29:17.831Z,70.10
2019-02-12T01:29:50.301Z,70.20
2019-02-12T01:30:22.771Z,70.20
2019-02-12T01:30:55.652Z,70.30
2019-02-12T01:31:28.092Z,70.10
2019-02-12T01:32:00.881Z,70.20
2019-02-12T01:32:33.342Z,70.10
2019-02-12T01:33:06.403Z,70.40
2019-02-12T01:33:38.896Z,69.90
2019-02-12T01:34:11.686Z,69.80
2019-02-12T01:34:44.141Z,70.50
2019-02-12T01:35:16.915Z,70.20
2019-02-12T01:35:49.391Z,70.30
2019-02-12T01:36:21.914Z,70.10
2019-02-12T01:36:54.394Z,70.00
2019-02-12T01:37:26.846Z,70.00
2019-02-12T01:37:59.624Z,70.00
2019-02-12T01:38:32.407Z,70.10
2019-02-12T01:39:09.687Z,69.90
2019-02-12T01:39:42.441Z,70.00
2019-02-12T01:40:15.205Z,70.10
2019-02-12T01:40:47.666Z,70.20
2019-02-12T01:41:20.758Z,70.20
2019-02-12T01:41:53.259Z,70.30
2019-02-12T01:42:25.726Z,70.30
2019-02-12T01:42:58.194Z,70.30
2019-02-12T01:43:30.680Z,70.40
2019-02-12T01:44:03.436Z,70.60
2019-02-12T01:44:35.902Z,70.70
2019-02-12T01:45:10.035Z,70.80
2019-02-12T01:45:42.494Z,70.50
2019-02-12T01:46:15.354Z,70.40
2019-02-12T01:46:48.182Z,70.40
2019-02-12T01:47:20.687Z,70.50
2019-02-12T01:47:53.439Z,70.50
2019-02-12T01:48:26.323Z,70.60
2019-02-12T01:48:58.817Z,70.60
2019-02-12T01:49:31.291Z,70.50
2019-02-12T01:50:04.321Z,70.50
2019-02-12T01:50:36.796Z,70.10
2019-02-12T01:51:09.250Z,70.20
2019-02-12T01:51:42.077Z,70.10
2019-02-12T01:52:14.544Z,70.00
2019-02-12T01:52:47.340Z,70.10
2019-02-12T01:53:20.573Z,70.70
2019-02-12T01:53:53.048Z,70.10
2019-02-12T01:54:25.510Z,70.00
2019-02-12T01:54:58.413Z,70.10
2019-02-12T01:55:30.887Z,70.10
2019-02-12T01:56:03.716Z,70.20
2019-02-12T01:56:36.170Z,70.30
2019-02-12T01:57:09.067Z,70.30
2019-02-12T01:57:41.572Z,70.90
2019-02-12T01:58:14.102Z,70.40
2019-02-12T01:58:46.566Z,70.40
2019-02-12T01:59:19.319Z,70.10
2019-02-12T01:59:51.774Z,70.10
2019-02-12T02:00:24.233Z,70.30
2019-02-12T02:00:56.727Z,70.40
2019-02-12T02:01:29.502Z,70.40
2019-02-12T02:02:02.287Z,70.50
2019-02-12T02:02:35.114Z,70.60
2019-02-12T02:03:07.887Z,70.70
2019-02-12T02:03:40.386Z,70.70
2019-02-12T02:04:12.861Z,70.70
2019-02-12T02:04:45.314Z,70.70
2019-02-12T02:05:18.488Z,70.60
2019-02-12T02:05:50.950Z,70.60
2019-02-12T02:06:23.762Z,70.60
2019-02-12T02:06:56.554Z,70.40
2019-02-12T02:07:29.339Z,70.40
2019-02-12T02:08:01.795Z,70.40
2019-02-12T02:08:34.514Z,70.40
2019-02-12T02:09:07.314Z,70.40
2019-02-12T02:09:39.775Z,70.30
2019-02-12T02:10:14.621Z,70.20
2019-02-12T02:10:47.096Z,70.50
2019-02-12T02:11:19.872Z,70.50
2019-02-12T02:11:52.758Z,70.30
2019-02-12T02:12:25.227Z,70.10
2019-02-12T02:12:58.041Z,70.30
2019-02-12T02:13:30.517Z,70.50
2019-02-12T02:14:03.266Z,70.20
2019-02-12T02:14:35.757Z,70.30
2019-02-12T02:15:09.434Z,70.30
2019-02-12T02:15:42.279Z,70.50
2019-02-12T02:16:14.749Z,70.50
2019-02-12T02:16:47.211Z,70.50
2019-02-12T02:17:19.687Z,70.50
2019-02-12T02:17:52.134Z,70.50
2019-02-12T02:18:24.615Z,70.60
2019-02-12T02:18:57.447Z,70.70
2019-02-12T02:19:29.911Z,70.80
2019-02-12T02:20:02.943Z,70.60
2019-02-12T02:20:35.390Z,70.60
2019-02-12T02:21:07.850Z,70.70
2019-02-12T02:21:44.146Z,71.00
2019-02-12T02:22:14.975Z,70.70
2019-02-12T02:22:47.438Z,70.40
2019-02-12T02:23:19.903Z,71.00
2019-02-12T02:23:52.731Z,70.50
2019-02-12T02:24:25.650Z,70.50
2019-02-12T02:24:58.411Z,70.50
2019-02-12T02:25:30.912Z,70.60
2019-02-12T02:26:03.410Z,70.60
2019-02-12T02:26:36.206Z,70.50
2019-02-12T02:27:08.672Z,70.60
2019-02-12T02:27:41.411Z,70.60
2019-02-12T02:28:13.877Z,70.80
2019-02-12T02:28:46.361Z,71.00
2019-02-12T02:29:18.832Z,70.90
2019-02-12T02:29:51.315Z,71.00
2019-02-12T02:30:24.135Z,70.90
2019-02-12T02:30:56.776Z,70.90
2019-02-12T02:31:29.581Z,70.80
2019-02-12T02:32:02.054Z,70.90
2019-02-12T02:32:34.514Z,70.90
2019-02-12T02:33:07.370Z,71.00
2019-02-12T02:33:39.814Z,71.00
2019-02-12T02:34:12.295Z,70.70
2019-02-12T02:34:44.890Z,70.80
2019-02-12T02:35:17.644Z,70.40
2019-02-12T02:35:50.120Z,70.10
2019-02-12T02:36:22.620Z,70.30
2019-02-12T02:36:55.064Z,70.60
2019-02-12T02:37:27.868Z,70.70
2019-02-12T02:38:00.331Z,70.60
2019-02-12T02:38:32.801Z,70.30
2019-02-12T02:39:05.350Z,70.50
2019-02-12T02:39:37.824Z,70.70
2019-02-12T02:40:10.343Z,70.60
2019-02-12T02:40:42.794Z,70.60
2019-02-12T02:41:15.252Z,70.50
2019-02-12T02:41:47.729Z,70.40
2019-02-12T02:42:20.230Z,70.40
2019-02-12T02:42:53.087Z,71.00
2019-02-12T02:43:25.543Z,70.40
2019-02-12T02:43:58.031Z,70.50
2019-02-12T02:44:30.873Z,70.70
2019-02-12T02:45:03.773Z,71.00
2019-02-12T02:45:36.510Z,71.00
2019-02-12T02:46:08.995Z,70.90
2019-02-12T02:46:41.450Z,70.70
2019-02-12T02:47:13.950Z,70.70
2019-02-12T02:47:47.084Z,70.90
2019-02-12T02:48:19.576Z,71.00
2019-02-12T02:48:52.439Z,70.70
2019-02-12T02:49:24.903Z,70.50
2019-02-12T02:49:57.374Z,70.50
2019-02-12T02:50:30.214Z,70.50
2019-02-12T02:51:02.679Z,70.60
2019-02-12T02:51:35.167Z,70.90
2019-02-12T02:52:08.006Z,70.90
2019-02-12T02:52:40.491Z,70.80
2019-02-12T02:53:12.954Z,70.70
2019-02-12T02:53:45.418Z,70.70
2019-02-12T02:54:17.899Z,70.80
2019-02-12T02:54:50.351Z,70.90
2019-02-12T02:55:22.799Z,70.70
2019-02-12T02:55:55.313Z,70.70
2019-02-12T02:56:28.125Z,70.70
2019-02-12T02:57:00.594Z,70.60
2019-02-12T02:57:33.388Z,70.50
2019-02-12T02:58:05.892Z,70.50
2019-02-12T02:58:38.345Z,70.50
2019-02-12T02:59:10.811Z,70.30
2019-02-12T02:59:43.989Z,70.30
2019-02-12T03:00:16.485Z,70.40
2019-02-12T03:00:48.934Z,70.20
2019-02-12T03:01:21.794Z,70.40
2019-02-12T03:01:54.656Z,70.50
2019-02-12T03:02:27.129Z,70.50
2019-02-12T03:02:59.991Z,70.50
2019-02-12T03:03:32.489Z,70.50
2019-02-12T03:04:05.302Z,70.40
2019-02-12T03:04:37.777Z,70.50
2019-02-12T03:05:10.279Z,70.60
2019-02-12T03:05:43.168Z,70.50
2019-02-12T03:06:15.985Z,70.40
2019-02-12T03:06:48.441Z,71.10
2019-02-12T03:07:21.207Z,71.20
2019-02-12T03:07:54.230Z,70.90
2019-02-12T03:08:27.046Z,71.00
2019-02-12T03:08:59.819Z,70.50
2019-02-12T03:09:32.574Z,70.40
2019-02-12T03:10:05.753Z,70.60
2019-02-12T03:10:38.499Z,70.70
2019-02-12T03:11:11.994Z,70.60
2019-02-12T03:11:44.573Z,70.90
2019-02-12T03:12:17.065Z,70.90
2019-02-12T03:12:49.819Z,70.90
2019-02-12T03:13:22.564Z,70.90
2019-02-12T03:13:55.024Z,71.00
2019-02-12T03:14:27.527Z,70.90
2019-02-12T03:15:00.359Z,71.10
2019-02-12T03:15:33.125Z,71.10
2019-02-12T03:16:05.900Z,71.00
2019-02-12T03:16:38.371Z,70.80
2019-02-12T03:17:11.126Z,70.70
2019-02-12T03:17:43.959Z,70.70
2019-02-12T03:18:16.855Z,70.90
2019-02-12T03:18:49.307Z,70.70
2019-02-12T03:19:21.783Z,70.60
2019-02-12T03:19:54.254Z,70.60
2019-02-12T03:20:26.739Z,70.60
2019-02-12T03:21:00.004Z,70.80
2019-02-12T03:21:32.468Z,70.90
2019-02-12T03:22:04.930Z,71.00
2019-02-12T03:22:37.820Z,70.90
2019-02-12T03:23:10.646Z,70.80
2019-02-12T03:23:43.188Z,70.90
2019-02-12T03:24:15.643Z,71.00
2019-02-12T03:24:48.098Z,71.10
2019-02-12T03:25:20.606Z,71.20
2019-02-12T03:25:53.734Z,71.30
2019-02-12T03:26:26.867Z,71.20
2019-02-12T03:26:59.362Z,71.40
2019-02-12T03:27:32.494Z,71.40
2019-02-12T03:28:05.260Z,71.40
2019-02-12T03:28:37.863Z,71.50
2019-02-12T03:29:10.678Z,71.70
2019-02-12T03:29:43.639Z,71.70
2019-02-12T03:30:16.106Z,71.80
2019-02-12T03:30:48.904Z,72.00
2019-02-12T03:31:21.633Z,71.80
2019-02-12T03:31:54.394Z,71.80
2019-02-12T03:32:26.856Z,72.10
2019-02-12T03:32:59.371Z,72.20
2019-02-12T03:33:31.880Z,72.40
2019-02-12T03:34:04.713Z,72.30
2019-02-12T03:34:37.274Z,72.30
2019-02-12T03:35:10.228Z,72.10
2019-02-12T03:35:42.989Z,71.90
2019-02-12T03:36:15.528Z,71.80
2019-02-12T03:36:48.351Z,71.80
2019-02-12T03:37:20.792Z,71.80
2019-02-12T03:37:53.373Z,71.90
2019-02-12T03:38:26.132Z,71.90
2019-02-12T03:38:58.995Z,71.90
2019-02-12T03:39:31.744Z,71.90
2019-02-12T03:40:04.655Z,72.10
2019-02-12T03:40:37.607Z,72.40
2019-02-12T03:41:10.041Z,72.30
2019-02-12T03:41:42.550Z,72.10
2019-02-12T03:42:15.326Z,72.20
2019-02-12T03:42:47.807Z,72.30
2019-02-12T03:43:20.267Z,72.20
2019-02-12T03:43:53.403Z,72.20
2019-02-12T03:44:25.935Z,72.40
2019-02-12T03:44:59.021Z,72.40
2019-02-12T03:45:32.085Z,72.40
2019-02-12T03:46:04.909Z,72.20
2019-02-12T03:46:37.726Z,72.30
2019-02-12T03:47:10.216Z,72.20
2019-02-12T03:47:43.280Z,72.20
2019-02-12T03:48:15.723Z,72.80
2019-02-12T03:48:48.835Z,72.30
2019-02-12T03:49:21.738Z,72.40
2019-02-12T03:49:54.591Z,72.40
2019-02-12T03:50:27.077Z,72.40
2019-02-12T03:50:59.578Z,72.40
2019-02-12T03:51:32.084Z,72.50
2019-02-12T03:52:12.654Z,72.70
2019-02-12T03:52:39.577Z,72.80
2019-02-12T03:53:12.069Z,72.80
2019-02-12T03:53:44.853Z,72.90
2019-02-12T03:54:18.038Z,72.90
2019-02-12T03:54:51.224Z,72.80
2019-02-12T03:55:23.739Z,72.70
2019-02-12T03:55:56.546Z,72.60
2019-02-12T03:56:29.011Z,72.80
2019-02-12T03:57:01.472Z,72.80
2019-02-12T03:57:33.926Z,73.00
2019-02-12T03:58:06.433Z,73.10
2019-02-12T03:58:38.897Z,73.00
2019-02-12T03:59:12.113Z,73.00
2019-02-12T03:59:44.902Z,73.10
2019-02-12T04:00:17.403Z,73.00
2019-02-12T04:00:49.874Z,73.20
2019-02-12T04:01:22.349Z,73.20
2019-02-12T04:01:54.810Z,73.20
2019-02-12T04:02:27.597Z,73.20
2019-02-12T04:03:01.718Z,73.20
2019-02-12T04:03:34.227Z,73.40
2019-02-12T04:04:06.996Z,73.20
2019-02-12T04:04:39.476Z,73.30
2019-02-12T04:05:11.938Z,73.20
2019-02-12T04:05:44.421Z,72.90
2019-02-12T04:06:16.887Z,72.90
2019-02-12T04:06:49.363Z,72.80
2019-02-12T04:07:21.857Z,73.00
2019-02-12T04:07:54.322Z,73.20
2019-02-12T04:08:26.789Z,73.60
2019-02-12T04:08:59.326Z,73.50
2019-02-12T04:09:31.819Z,73.30
2019-02-12T04:10:04.293Z,73.40
2019-02-12T04:10:36.796Z,73.10
2019-02-12T04:11:09.253Z,73.10
2019-02-12T04:11:42.319Z,73.10
2019-02-12T04:12:15.149Z,73.30
2019-02-12T04:12:47.618Z,73.00
2019-02-12T04:13:20.100Z,73.00
2019-02-12T04:13:52.861Z,73.10
2019-02-12T04:14:26.037Z,73.10
2019-02-12T04:14:58.886Z,73.20
2019-02-12T04:15:31.542Z,73.20
2019-02-12T04:16:04.027Z,73.20
2019-02-12T04:16:37.207Z,73.30
2019-02-12T04:17:09.685Z,73.40
2019-02-12T04:17:42.530Z,73.30
2019-02-12T04:18:15.540Z,73.30
2019-02-12T04:18:48.407Z,73.50
2019-02-12T04:19:20.904Z,73.40
2019-02-12T04:19:53.716Z,73.60
2019-02-12T04:20:26.575Z,73.80
2019-02-12T04:20:59.406Z,73.80
2019-02-12T04:21:31.885Z,73.80
2019-02-12T04:22:04.363Z,73.60
2019-02-12T04:22:36.815Z,73.70
2019-02-12T04:23:09.300Z,73.60
2019-02-12T04:23:41.853Z,73.50
2019-02-12T04:24:14.317Z,73.50
2019-02-12T04:24:46.807Z,73.70
2019-02-12T04:25:19.312Z,73.80
2019-02-12T04:25:51.783Z,73.70
2019-02-12T04:26:24.291Z,73.80
2019-02-12T04:26:57.209Z,73.80
2019-02-12T04:27:29.663Z,73.90
2019-02-12T04:28:02.580Z,74.40
2019-02-12T04:28:37.054Z,73.70
2019-02-12T04:29:09.942Z,73.80
2019-02-12T04:29:42.813Z,73.90
2019-02-12T04:30:15.243Z,73.90
2019-02-12T04:30:47.735Z,73.90
2019-02-12T04:31:20.189Z,73.70
2019-02-12T04:31:53.371Z,73.50
2019-02-12T04:32:26.209Z,73.60
2019-02-12T04:32:58.697Z,73.50
2019-02-12T04:33:31.915Z,73.70
2019-02-12T04:34:04.427Z,73.90
2019-02-12T04:34:36.844Z,73.60
2019-02-12T04:35:09.347Z,73.50
2019-02-12T04:35:41.800Z,73.70
2019-02-12T04:36:15.140Z,73.80
2019-02-12T04:36:47.878Z,73.70
2019-02-12T04:37:21.083Z,73.70
2019-02-12T04:37:53.567Z,73.90
2019-02-12T04:38:26.014Z,74.00
2019-02-12T04:38:58.791Z,74.20
2019-02-12T04:39:31.948Z,74.30
2019-02-12T04:40:05.222Z,74.30
2019-02-12T04:40:37.688Z,74.30
2019-02-12T04:41:10.192Z,74.30
2019-02-12T04:41:42.692Z,74.50
2019-02-12T04:42:15.541Z,75.30
2019-02-12T04:42:48.018Z,74.60
2019-02-12T04:43:20.494Z,74.60
2019-02-12T04:43:52.979Z,74.80
2019-02-12T04:44:25.461Z,74.70
2019-02-12T04:44:57.923Z,74.60
2019-02-12T04:45:30.403Z,74.80
2019-02-12T04:46:02.936Z,75.00
2019-02-12T04:46:35.680Z,75.20
2019-02-12T04:47:08.194Z,75.30
2019-02-12T04:47:40.987Z,75.20
2019-02-12T04:48:14.161Z,75.40
2019-02-12T04:48:46.623Z,75.50
2019-02-12T04:49:19.099Z,75.50
2019-02-12T04:49:51.567Z,75.60
2019-02-12T04:50:24.726Z,75.20
2019-02-12T04:50:57.191Z,75.20
2019-02-12T04:51:29.691Z,75.30
2019-02-12T04:52:02.166Z,75.40
2019-02-12T04:52:35.083Z,75.50
2019-02-12T04:53:07.976Z,75.70
2019-02-12T04:53:40.798Z,75.60
2019-02-12T04:54:13.425Z,75.90
2019-02-12T04:54:45.907Z,76.00
2019-02-12T04:55:18.493Z,75.80
2019-02-12T04:55:50.951Z,75.80
2019-02-12T04:56:23.743Z,75.90
2019-02-12T04:56:56.497Z,76.00
2019-02-12T04:57:29.010Z,76.00
2019-02-12T04:58:01.464Z,76.00
2019-02-12T04:58:33.911Z,76.10
2019-02-12T04:59:06.390Z,76.10
2019-02-12T04:59:39.165Z,76.20
2019-02-12T05:00:13.035Z,76.00
2019-02-12T05:00:45.627Z,75.90
2019-02-12T05:01:18.404Z,76.00
2019-02-12T05:01:51.212Z,76.00
2019-02-12T05:02:23.682Z,76.00
2019-02-12T05:02:56.441Z,75.90
2019-02-12T05:03:29.331Z,75.90
2019-02-12T05:04:01.794Z,76.00
2019-02-12T05:04:34.257Z,76.00
2019-02-12T05:05:08.152Z,76.30
2019-02-12T05:05:40.632Z,76.40
2019-02-12T05:06:13.118Z,76.20
2019-02-12T05:06:45.842Z,76.10
2019-02-12T05:07:18.297Z,76.30
2019-02-12T05:07:50.758Z,76.30
2019-02-12T05:08:23.234Z,76.30
2019-02-12T05:09:16.350Z,76.30
2019-02-12T05:09:51.438Z,76.10
2019-02-12T05:10:24.966Z,76.10
2019-02-12T05:11:01.432Z,76.10
2019-02-12T05:11:33.892Z,75.90
2019-02-12T05:12:06.375Z,75.90
2019-02-12T05:12:38.853Z,76.00
2019-02-12T05:13:11.972Z,75.80
2019-02-12T05:13:44.834Z,75.50
2019-02-12T05:14:17.304Z,75.50
2019-02-12T05:14:50.146Z,75.80
2019-02-12T05:15:22.877Z,75.70
2019-02-12T05:15:55.664Z,75.90
2019-02-12T05:16:28.136Z,75.60
2019-02-12T05:17:00.591Z,75.70
2019-02-12T05:17:33.722Z,75.90
2019-02-12T05:18:06.302Z,75.90
2019-02-12T05:18:38.770Z,76.00
2019-02-12T05:19:11.593Z,76.20
2019-02-12T05:19:44.046Z,76.20
2019-02-12T05:20:16.542Z,75.90
2019-02-12T05:20:49.011Z,75.80
2019-02-12T05:21:21.462Z,75.70
2019-02-12T05:21:53.914Z,75.50
2019-02-12T05:22:26.362Z,75.60
2019-02-12T05:22:58.855Z,75.90
2019-02-12T05:23:31.320Z,76.20
2019-02-12T05:24:04.114Z,76.10
2019-02-12T05:24:36.594Z,76.00
2019-02-12T05:25:09.352Z,76.00
2019-02-12T05:25:42.239Z,76.00
2019-02-12T05:26:15.033Z,75.90
2019-02-12T05:26:47.518Z,75.90
2019-02-12T05:27:20.357Z,75.80
2019-02-12T05:27:53.086Z,76.00
2019-02-12T05:28:25.547Z,75.80
2019-02-12T05:28:58.404Z,75.80
2019-02-12T05:29:30.880Z,75.90
2019-02-12T05:30:03.590Z,75.90
2019-02-12T05:30:36.339Z,75.80
2019-02-12T05:31:08.836Z,75.30
2019-02-12T05:31:41.296Z,75.00
2019-02-12T05:32:13.750Z,74.90
2019-02-12T05:32:46.201Z,75.00
2019-02-12T05:33:18.667Z,75.20
2019-02-12T05:33:51.139Z,75.20
2019-02-12T05:34:23.936Z,75.30
2019-02-12T05:34:56.703Z,75.30
2019-02-12T05:35:29.166Z,74.90
2019-02-12T05:36:01.662Z,75.00
2019-02-12T05:36:34.133Z,74.90
2019-02-12T05:37:06.601Z,75.00
2019-02-12T05:37:39.059Z,74.90
2019-02-12T05:38:12.122Z,75.00
2019-02-12T05:38:45.026Z,74.90
2019-02-12T05:39:17.757Z,75.00
2019-02-12T05:39:50.237Z,74.80
2019-02-12T05:40:22.726Z,74.80
2019-02-12T05:40:55.183Z,74.70
2019-02-12T05:41:28.035Z,74.40
2019-02-12T05:42:01.291Z,74.50
2019-02-12T05:42:33.759Z,74.40
2019-02-12T05:43:06.224Z,74.70
2019-02-12T05:43:39.006Z,74.80
2019-02-12T05:44:11.821Z,74.90
2019-02-12T05:44:44.584Z,74.70
2019-02-12T05:45:17.035Z,74.80
2019-02-12T05:45:49.498Z,74.40
2019-02-12T05:46:21.968Z,74.60
2019-02-12T05:46:54.482Z,74.40
2019-02-12T05:47:26.941Z,74.20
2019-02-12T05:47:59.833Z,74.10
2019-02-12T05:48:32.294Z,74.20
2019-02-12T05:49:04.759Z,74.20
2019-02-12T05:49:37.228Z,74.40
2019-02-12T05:50:11.183Z,74.40
2019-02-12T05:50:43.649Z,74.20
2019-02-12T05:51:16.474Z,74.00
2019-02-12T05:51:49.363Z,74.00
2019-02-12T05:52:21.818Z,74.20
2019-02-12T05:52:55.160Z,74.50
2019-02-12T05:53:27.767Z,74.60
2019-02-12T05:54:00.569Z,74.50
2019-02-12T05:54:33.028Z,74.50
2019-02-12T05:55:05.516Z,74.30
2019-02-12T05:55:37.991Z,74.10
2019-02-12T05:56:10.834Z,74.20
2019-02-12T05:56:43.316Z,74.30
2019-02-12T05:57:16.048Z,74.40
2019-02-12T05:57:48.529Z,74.40
2019-02-12T05:58:21.020Z,74.30
2019-02-12T05:58:53.833Z,74.20
2019-02-12T05:59:26.594Z,74.20
2019-02-12T05:59:59.062Z,74.20
2019-02-12T06:00:33.264Z,74.10
2019-02-12T06:01:05.723Z,74.30
2019-02-12T06:01:38.177Z,74.50
2019-02-12T06:02:10.634Z,74.70
2019-02-12T06:02:43.415Z,74.60
2019-02-12T06:03:16.488Z,74.70
2019-02-12T06:03:49.714Z,74.70
2019-02-12T06:04:22.189Z,74.80
2019-02-12T06:04:54.949Z,74.90
2019-02-12T06:05:28.203Z,75.40
2019-02-12T06:06:00.663Z,74.50
2019-02-12T06:06:33.448Z,74.60
2019-02-12T06:07:05.907Z,74.80
2019-02-12T06:07:38.493Z,74.80
2019-02-12T06:08:11.211Z,74.90
2019-02-12T06:08:43.667Z,75.20
2019-02-12T06:09:16.485Z,75.30
2019-02-12T06:09:48.948Z,74.90
2019-02-12T06:10:21.403Z,75.00
2019-02-12T06:10:53.858Z,75.10
2019-02-12T06:11:27.571Z,75.20
2019-02-12T06:12:00.164Z,75.20
2019-02-12T06:12:32.912Z,75.30
2019-02-12T06:13:05.408Z,75.30
2019-02-12T06:13:37.865Z,75.40
2019-02-12T06:14:10.306Z,75.40
2019-02-12T06:14:43.488Z,75.30
2019-02-12T06:15:15.953Z,75.20
2019-02-12T06:15:48.407Z,75.50
2019-02-12T06:16:20.865Z,75.60
2019-02-12T06:16:53.341Z,75.70
2019-02-12T06:17:26.094Z,76.30
2019-02-12T06:17:58.554Z,75.60
2019-02-12T06:18:31.015Z,75.50
2019-02-12T06:19:03.892Z,75.60
2019-02-12T06:19:36.643Z,75.90
2019-02-12T06:20:09.149Z,76.00
2019-02-12T06:20:41.600Z,76.40
2019-02-12T06:21:14.059Z,76.40
2019-02-12T06:21:46.844Z,76.30
2019-02-12T06:22:19.309Z,76.30
2019-02-12T06:22:51.809Z,76.20
2019-02-12T06:23:24.597Z,75.90
2019-02-12T06:23:57.082Z,76.10
2019-02-12T06:24:29.561Z,76.30
2019-02-12T06:25:02.391Z,76.40
2019-02-12T06:25:35.501Z,76.30
2019-02-12T06:26:07.971Z,76.30
2019-02-12T06:26:40.890Z,76.20
2019-02-12T06:27:13.345Z,76.10
2019-02-12T06:27:46.137Z,76.20
2019-02-12T06:28:18.615Z,76.30
2019-02-12T06:28:51.369Z,76.00
2019-02-12T06:29:24.144Z,76.10
2019-02-12T06:29:56.580Z,76.40
2019-02-12T06:30:29.799Z,76.30
2019-02-12T06:31:02.680Z,76.10
2019-02-12T06:31:35.610Z,76.40
2019-02-12T06:32:08.385Z,76.10
2019-02-12T06:32:41.554Z,76.10
2019-02-12T06:33:14.391Z,76.20
2019-02-12T06:33:47.207Z,76.30
2019-02-12T06:34:20.027Z,76.50
2019-02-12T06:34:52.495Z,76.60
2019-02-12T06:35:24.950Z,76.40
2019-02-12T06:35:57.424Z,76.40
2019-02-12T06:36:30.225Z,76.20
2019-02-12T06:37:03.386Z,76.20
2019-02-12T06:37:35.859Z,76.20
2019-02-12T06:38:08.926Z,76.00
2019-02-12T06:38:41.383Z,75.90
2019-02-12T06:39:13.963Z,76.00
2019-02-12T06:39:46.423Z,75.90
2019-02-12T06:40:18.897Z,76.10
2019-02-12T06:40:51.365Z,76.10
2019-02-12T06:41:23.809Z,76.10
2019-02-12T06:41:56.322Z,76.20
2019-02-12T06:42:28.788Z,76.30
2019-02-12T06:43:01.246Z,76.40
2019-02-12T06:43:34.116Z,76.50
2019-02-12T06:44:06.592Z,76.60
2019-02-12T06:44:39.453Z,76.90
2019-02-12T06:45:11.923Z,76.30
2019-02-12T06:45:44.710Z,76.20
2019-02-12T06:46:17.472Z,76.30
2019-02-12T06:46:49.953Z,76.50
2019-02-12T06:47:22.441Z,76.50
2019-02-12T06:47:55.178Z,76.50
2019-02-12T06:48:27.647Z,76.60
2019-02-12T06:49:00.118Z,76.10
2019-02-12T06:49:32.574Z,76.10
2019-02-12T06:50:06.422Z,76.00
2019-02-12T06:50:39.627Z,76.10
2019-02-12T06:51:12.086Z,76.10
2019-02-12T06:51:44.542Z,76.10
2019-02-12T06:52:17.307Z,75.90
2019-02-12T06:52:49.798Z,75.90
2019-02-12T06:53:22.268Z,76.10
2019-02-12T06:53:54.718Z,76.20
2019-02-12T06:54:27.166Z,76.40
2019-02-12T06:54:59.625Z,76.30
2019-02-12T06:55:32.362Z,76.20
2019-02-12T06:56:05.159Z,76.10
2019-02-12T06:56:38.186Z,76.10
2019-02-12T06:57:11.003Z,75.90
2019-02-12T06:57:43.454Z,76.00
2019-02-12T06:58:17.242Z,76.00
2019-02-12T06:58:49.712Z,76.10
2019-02-12T06:59:22.537Z,76.20
2019-02-12T06:59:55.357Z,76.40
2019-02-12T07:00:27.828Z,76.40
2019-02-12T07:01:00.658Z,76.60
2019-02-12T07:01:33.110Z,76.10